createdAt,value
2023-01-02T00:01:34.009Z,1.63
2023-01-02T00:04:02.381Z,1.00
2023-01-02T00:06:34.749Z,1.63
2023-01-02T00:09:04.063Z,0.43
2023-01-02T00:11:33.761Z,1.03
2023-01-02T00:14:02.200Z,1.80
2023-01-02T00:16:30.516Z,1.53
2023-01-02T00:18:58.831Z,0.67
2023-01-02T00:21:27.089Z,1.37
2023-01-02T00:23:55.456Z,1.80
2023-01-02T00:26:23.762Z,1.43
2023-01-02T00:28:53.457Z,1.13
2023-01-02T00:31:21.898Z,0.60
2023-01-02T00:33:50.217Z,2.67
2023-01-02T00:36:18.499Z,0.87
2023-01-02T00:38:46.808Z,1.33
2023-01-02T00:41:15.052Z,1.43
2023-01-02T00:43:43.832Z,1.13
2023-01-02T00:46:13.615Z,0.77
2023-01-02T00:48:41.929Z,0.93
2023-01-02T00:51:10.315Z,0.50
2023-01-02T00:53:38.887Z,1.30
2023-01-02T00:56:07.724Z,0.90
2023-01-02T00:58:36.027Z,2.93
2023-01-02T01:01:04.500Z,0.60
2023-01-02T01:03:34.454Z,1.30
2023-01-02T01:06:08.623Z,1.00
2023-01-02T01:08:37.261Z,0.60
2023-01-02T01:11:09.739Z,1.63
2023-01-02T01:13:38.042Z,0.93
2023-01-02T01:16:07.982Z,1.63
2023-01-02T01:18:37.963Z,1.23
2023-01-02T01:21:10.106Z,0.80
2023-01-02T01:23:38.917Z,1.50
2023-01-02T01:26:10.299Z,2.50
2023-01-02T01:28:39.353Z,0.40
2023-01-02T01:31:09.687Z,1.23
2023-01-02T01:33:40.054Z,0.97
2023-01-02T01:36:11.731Z,2.43
2023-01-02T01:38:40.153Z,1.77
2023-01-02T01:41:09.636Z,2.80
2023-01-02T01:43:44.241Z,2.83
2023-01-02T01:46:23.035Z,1.97
2023-01-02T01:48:59.063Z,1.53
2023-01-02T01:51:29.155Z,2.07
2023-01-02T01:54:04.090Z,2.33
2023-01-02T01:56:34.317Z,2.10
2023-01-02T01:59:02.653Z,1.03
2023-01-02T02:01:31.199Z,0.53
2023-01-02T02:04:01.241Z,2.70
2023-01-02T02:06:30.449Z,0.50
2023-01-02T02:09:03.037Z,2.30
2023-01-02T02:11:32.336Z,3.37
2023-01-02T02:14:01.913Z,1.70
2023-01-02T02:16:39.345Z,1.23
2023-01-02T02:19:50.326Z,1.63
2023-01-02T02:22:37.321Z,1.13
2023-01-02T02:25:44.581Z,0.80
2023-01-02T02:28:39.507Z,2.40
2023-01-02T02:31:14.707Z,0.83
2023-01-02T02:33:49.954Z,1.37
2023-01-02T02:36:23.782Z,1.33
2023-01-02T02:39:02.774Z,1.50
2023-01-02T02:41:35.723Z,0.90
2023-01-02T02:44:21.733Z,1.23
2023-01-02T02:46:57.507Z,1.90
2023-01-02T02:49:37.949Z,0.70
2023-01-02T02:52:12.798Z,1.27
2023-01-02T02:54:47.047Z,1.10
2023-01-02T02:57:16.482Z,1.00
2023-01-02T02:59:45.008Z,1.00
2023-01-02T03:02:17.613Z,2.53
2023-01-02T03:04:49.791Z,1.40
2023-01-02T03:07:26.479Z,0.73
2023-01-02T03:10:06.065Z,0.93
2023-01-02T03:12:41.517Z,1.43
2023-01-02T03:15:19.841Z,1.10
2023-01-02T03:18:01.958Z,0.90
2023-01-02T03:20:39.165Z,2.30
2023-01-02T03:23:11.763Z,1.27
2023-01-02T03:25:41.949Z,0.60
2023-01-02T03:28:13.203Z,0.30
2023-01-02T03:30:43.718Z,0.40
2023-01-02T03:33:18.016Z,1.30
2023-01-02T03:35:48.710Z,1.07
2023-01-02T03:38:21.888Z,0.77
2023-01-02T03:40:55.421Z,0.70
2023-01-02T03:43:29.349Z,1.23
2023-01-02T03:46:05.170Z,0.77
2023-01-02T03:48:39.276Z,1.23
2023-01-02T03:51:08.101Z,0.83
2023-01-02T03:53:39.520Z,1.23
2023-01-02T03:56:19.176Z,0.80
2023-01-02T03:58:51.856Z,1.10
2023-01-02T04:01:32.214Z,0.93
2023-01-02T04:04:09.428Z,0.50
2023-01-02T04:06:43.286Z,1.30
2023-01-02T04:09:15.689Z,1.00
2023-01-02T04:11:50.803Z,0.90
2023-01-02T04:14:23.864Z,0.30
2023-01-02T04:16:54.684Z,3.30
2023-01-02T04:19:27.689Z,1.57
2023-01-02T04:22:01.202Z,0.83
2023-01-02T04:24:33.562Z,0.57
2023-01-02T04:27:07.365Z,0.50
2023-01-02T04:29:35.707Z,1.10
2023-01-02T04:32:10.330Z,0.20
2023-01-02T04:34:42.402Z,1.47
2023-01-02T04:37:10.581Z,0.83
2023-01-02T04:39:39.705Z,0.87
2023-01-02T04:42:08.075Z,1.03
2023-01-02T04:44:36.412Z,2.00
2023-01-02T04:47:04.672Z,1.93
2023-01-02T04:49:32.909Z,1.57
2023-01-02T04:52:02.604Z,1.50
2023-01-02T04:54:30.878Z,0.80
2023-01-02T04:56:59.203Z,1.70
2023-01-02T04:59:27.455Z,1.13
2023-01-02T05:01:55.799Z,2.00
2023-01-02T05:04:24.138Z,1.33
2023-01-02T05:06:52.415Z,1.60
2023-01-02T05:09:22.099Z,0.97
2023-01-02T05:11:50.397Z,1.03
2023-01-02T05:14:18.668Z,0.60
2023-01-02T05:16:46.997Z,2.53
2023-01-02T05:19:15.514Z,0.40
2023-01-02T05:22:01.234Z,0.80
2023-01-02T05:24:30.902Z,0.73
2023-01-02T05:26:59.258Z,0.30
2023-01-02T05:29:27.825Z,2.60
2023-01-02T05:31:56.121Z,4.10
2023-01-02T05:34:24.347Z,10.10
2023-01-02T05:36:52.614Z,4.37
2023-01-02T05:39:20.921Z,8.50
2023-01-02T05:41:50.600Z,3.90
2023-01-02T05:44:18.901Z,4.93
2023-01-02T05:46:47.261Z,5.80
2023-01-02T05:49:15.483Z,10.27
2023-01-02T05:51:43.800Z,3.90
2023-01-02T05:54:12.157Z,1.47
2023-01-02T05:56:40.361Z,4.50
2023-01-02T05:59:10.135Z,2.63
2023-01-02T06:01:38.571Z,2.53
2023-01-02T06:04:06.966Z,1.77
2023-01-02T06:06:37.135Z,0.97
2023-01-02T06:09:07.591Z,2.07
2023-01-02T06:11:36.372Z,1.27
2023-01-02T06:14:04.628Z,3.90
2023-01-02T06:16:34.386Z,3.67
2023-01-02T06:19:02.741Z,1.93
2023-01-02T06:21:31.143Z,3.23
2023-01-02T06:23:59.733Z,3.27
2023-01-02T06:26:34.604Z,1.87
2023-01-02T06:29:04.227Z,3.77
2023-01-02T06:31:34.311Z,3.43
2023-01-02T06:34:03.942Z,3.33
2023-01-02T06:36:34.216Z,3.73
2023-01-02T06:39:02.793Z,2.53
2023-01-02T06:41:31.130Z,1.63
2023-01-02T06:43:59.321Z,4.27
2023-01-02T06:46:27.696Z,3.73
2023-01-02T06:48:57.395Z,2.10
2023-01-02T06:51:25.921Z,2.80
2023-01-02T06:53:54.267Z,2.40
2023-01-02T06:56:23.662Z,2.90
2023-01-02T06:58:52.000Z,1.43
2023-01-02T07:01:24.128Z,3.80
2023-01-02T07:03:52.481Z,3.60
2023-01-02T07:06:23.774Z,3.30
2023-01-02T07:08:52.038Z,2.90
2023-01-02T07:11:23.836Z,3.50
2023-01-02T07:13:54.457Z,3.13
2023-01-02T07:16:24.223Z,5.80
2023-01-02T07:18:54.024Z,2.47
2023-01-02T07:21:24.105Z,5.10
2023-01-02T07:23:52.394Z,2.87
2023-01-02T07:26:21.994Z,3.17
2023-01-02T07:28:50.338Z,3.70
2023-01-02T07:31:21.317Z,2.20
2023-01-02T07:33:49.612Z,4.47
2023-01-02T07:36:22.329Z,5.30
2023-01-02T07:38:53.008Z,9.20
2023-01-02T07:41:23.378Z,9.77
2023-01-02T07:43:52.457Z,6.43
2023-01-02T07:46:21.570Z,5.67
2023-01-02T07:48:50.597Z,7.03
2023-01-02T07:51:24.748Z,6.00
2023-01-02T07:53:56.970Z,5.23
2023-01-02T07:56:25.531Z,2.63
2023-01-02T07:58:54.220Z,4.40
2023-01-02T08:01:22.729Z,3.07
2023-01-02T08:03:51.052Z,4.43
2023-01-02T08:06:20.233Z,5.07
2023-01-02T08:08:48.945Z,6.60
2023-01-02T08:11:21.385Z,2.53
2023-01-02T08:13:50.080Z,2.40
2023-01-02T08:16:20.134Z,2.30
2023-01-02T08:18:51.548Z,0.60
2023-01-02T08:21:19.949Z,1.70
2023-01-02T08:23:48.172Z,0.90
2023-01-02T08:26:16.534Z,1.47
2023-01-02T08:28:46.263Z,2.20
2023-01-02T08:31:17.487Z,1.30
2023-01-02T08:33:46.340Z,2.07
2023-01-02T08:36:15.433Z,3.37
2023-01-02T08:38:44.158Z,3.90
2023-01-02T08:41:12.554Z,1.77
2023-01-02T08:43:41.295Z,2.50
2023-01-02T08:46:11.910Z,3.87
2023-01-02T08:48:40.168Z,2.20
2023-01-02T08:51:08.653Z,3.27
2023-01-02T08:53:36.902Z,5.10
2023-01-02T08:56:26.458Z,4.97
2023-01-02T08:58:56.183Z,3.30
2023-01-02T09:01:29.037Z,5.97
2023-01-02T09:03:58.609Z,2.40
2023-01-02T09:06:28.227Z,3.00
2023-01-02T09:08:59.060Z,3.90
2023-01-02T09:11:30.085Z,3.37
2023-01-02T09:14:00.691Z,3.50
2023-01-02T09:16:31.029Z,5.43
2023-01-02T09:19:00.757Z,3.40
2023-01-02T09:21:29.391Z,3.27
2023-01-02T09:23:58.048Z,2.70
2023-01-02T09:26:26.794Z,3.10
2023-01-02T09:28:55.133Z,2.23
2023-01-02T09:31:23.493Z,3.73
2023-01-02T09:33:54.991Z,2.10
2023-01-02T09:36:23.901Z,3.57
2023-01-02T09:38:53.352Z,3.93
2023-01-02T09:41:31.477Z,2.33
2023-01-02T09:44:03.292Z,3.30
2023-01-02T09:46:41.647Z,2.90
2023-01-02T09:49:15.532Z,1.10
2023-01-02T09:51:45.207Z,2.10
2023-01-02T09:54:19.846Z,1.50
2023-01-02T09:56:52.833Z,1.70
2023-01-02T09:59:28.317Z,1.53
2023-01-02T10:02:04.770Z,3.63
2023-01-02T10:04:49.363Z,2.03
2023-01-02T10:07:24.596Z,1.10
2023-01-02T10:09:58.889Z,2.20
2023-01-02T10:12:33.527Z,3.23
2023-01-02T10:15:04.564Z,1.70
2023-01-02T10:17:38.446Z,1.70
2023-01-02T10:20:23.812Z,2.63
2023-01-02T10:22:55.815Z,1.70
2023-01-02T10:25:28.305Z,1.83
2023-01-02T10:28:02.615Z,1.43
2023-01-02T10:30:37.550Z,2.00
2023-01-02T10:33:12.387Z,1.97
2023-01-02T10:35:45.655Z,0.83
2023-01-02T10:38:16.042Z,0.90
2023-01-02T10:40:47.163Z,2.17
2023-01-02T10:43:16.250Z,1.80
2023-01-02T10:45:45.054Z,1.77
2023-01-02T10:48:14.533Z,1.97
2023-01-02T10:50:50.210Z,2.10
2023-01-02T10:53:23.649Z,0.70
2023-01-02T10:55:52.056Z,0.70
2023-01-02T10:58:24.070Z,1.40
2023-01-02T11:00:54.153Z,1.83
2023-01-02T11:03:25.393Z,1.60
2023-01-02T11:06:02.137Z,1.67
2023-01-02T11:08:40.753Z,1.20
2023-01-02T11:11:15.404Z,0.50
2023-01-02T11:13:53.857Z,0.93
2023-01-02T11:16:24.626Z,0.57
2023-01-02T11:18:55.595Z,0.50
2023-01-02T11:21:31.431Z,0.93
2023-01-02T11:24:02.780Z,1.37
2023-01-02T11:26:33.210Z,1.00
2023-01-02T11:29:09.452Z,0.70
2023-01-02T11:31:44.719Z,1.53
2023-01-02T11:34:21.200Z,1.10
2023-01-02T11:37:03.591Z,0.50
2023-01-02T11:39:33.559Z,1.23
2023-01-02T11:42:29.768Z,1.30
2023-01-02T11:45:04.370Z,2.07
2023-01-02T11:47:35.134Z,0.93
2023-01-02T11:50:04.568Z,3.50
2023-01-02T11:52:41.263Z,1.40
2023-01-02T11:55:20.557Z,1.10
2023-01-02T11:57:54.533Z,0.30
2023-01-02T12:00:24.931Z,0.83
2023-01-02T12:02:54.784Z,0.40
2023-01-02T12:05:28.687Z,0.73
2023-01-02T12:08:07.875Z,0.83
2023-01-02T12:10:50.531Z,1.27
2023-01-02T12:13:43.504Z,1.07
2023-01-02T12:16:24.824Z,1.40
2023-01-02T12:19:09.673Z,0.60
2023-01-02T12:21:46.333Z,0.80
2023-01-02T12:24:43.237Z,0.60
2023-01-02T12:27:18.559Z,1.10
2023-01-02T12:30:08.898Z,0.80
2023-01-02T12:33:00.458Z,1.23
2023-01-02T12:35:49.070Z,0.63
2023-01-02T12:38:30.077Z,0.40
2023-01-02T12:41:15.480Z,0.50
2023-01-02T12:43:58.610Z,0.30
2023-01-02T12:46:40.085Z,0.80
2023-01-02T12:49:24.059Z,0.50
2023-01-02T12:52:00.762Z,0.70
2023-01-02T12:54:44.395Z,0.57
2023-01-02T12:57:22.888Z,1.50
2023-01-02T13:00:19.602Z,1.13
2023-01-02T13:03:10.020Z,0.97
2023-01-02T13:05:43.512Z,0.97
2023-01-02T13:08:20.319Z,1.13
2023-01-02T13:10:49.586Z,1.40
2023-01-02T13:13:20.248Z,0.70
2023-01-02T13:15:51.800Z,1.27
2023-01-02T13:18:26.141Z,2.37
2023-01-02T13:21:02.421Z,1.30
2023-01-02T13:23:35.586Z,3.07
2023-01-02T13:26:07.689Z,1.40
2023-01-02T13:28:43.471Z,1.20
2023-01-02T13:31:45.408Z,2.73
2023-01-02T13:34:10.182Z,2.07
2023-01-02T13:36:40.684Z,1.73
2023-01-02T13:39:19.281Z,2.90
2023-01-02T13:42:09.730Z,5.43
2023-01-02T13:44:43.132Z,3.87
2023-01-02T13:47:24.566Z,2.20
2023-01-02T13:50:09.988Z,3.10
2023-01-02T13:52:39.107Z,1.93
2023-01-02T13:55:32.859Z,2.90
2023-01-02T13:58:25.193Z,1.00
2023-01-02T14:00:56.742Z,2.03
2023-01-02T14:03:37.167Z,0.90
2023-01-02T14:06:27.728Z,0.97
2023-01-02T14:09:18.301Z,2.97
2023-01-02T14:11:55.710Z,2.07
2023-01-02T14:14:29.945Z,1.90
2023-01-02T14:17:17.214Z,4.77
2023-01-02T14:19:46.224Z,3.30
2023-01-02T14:22:16.624Z,3.03
2023-01-02T14:24:47.442Z,2.00
2023-01-02T14:27:24.202Z,2.57
2023-01-02T14:29:54.834Z,3.43
2023-01-02T14:32:36.186Z,3.23
2023-01-02T14:35:08.412Z,6.33
2023-01-02T14:37:41.079Z,5.30
2023-01-02T14:40:19.698Z,6.50
2023-01-02T14:43:12.201Z,9.20
2023-01-02T14:45:45.578Z,6.77
2023-01-02T14:48:18.522Z,3.73
2023-01-02T14:50:49.764Z,3.20
2023-01-02T14:53:22.987Z,3.53
2023-01-02T14:55:54.408Z,3.70
2023-01-02T14:58:40.127Z,5.80
2023-01-02T15:01:09.931Z,4.57
2023-01-02T15:03:49.095Z,5.93
2023-01-02T15:06:24.571Z,4.17
2023-01-02T15:08:55.136Z,2.50
2023-01-02T15:11:42.960Z,2.20
2023-01-02T15:14:17.820Z,1.57
2023-01-02T15:16:53.247Z,1.90
2023-01-02T15:19:26.689Z,1.90
2023-01-02T15:21:56.261Z,0.80
2023-01-02T15:24:27.258Z,1.47
2023-01-02T15:26:57.251Z,2.63
2023-01-02T15:29:27.307Z,1.67
2023-01-02T15:31:57.707Z,0.60
2023-01-02T15:34:29.489Z,1.23
2023-01-02T15:36:59.770Z,2.53
2023-01-02T15:39:34.762Z,2.50
2023-01-02T15:42:11.898Z,3.10
2023-01-02T15:44:58.250Z,2.10
2023-01-02T15:47:28.441Z,1.30
2023-01-02T15:49:59.163Z,0.73
2023-01-02T15:52:31.352Z,1.33
2023-01-02T15:55:00.643Z,3.07
2023-01-02T15:57:32.110Z,4.53
2023-01-02T16:00:01.105Z,3.03
2023-01-02T16:02:35.437Z,4.57
2023-01-02T16:05:10.995Z,2.10
2023-01-02T16:07:40.417Z,1.70
2023-01-02T16:10:15.472Z,1.57
2023-01-02T16:12:43.985Z,1.40
2023-01-02T16:15:22.569Z,0.67
2023-01-02T16:17:52.107Z,1.93
2023-01-02T16:20:23.674Z,1.17
2023-01-02T16:22:55.902Z,0.70
2023-01-02T16:25:26.284Z,0.73
2023-01-02T16:27:57.687Z,4.40
2023-01-02T16:30:39.210Z,1.73
2023-01-02T16:33:23.194Z,1.60
2023-01-02T16:36:01.057Z,0.87
2023-01-02T16:38:30.427Z,0.80
2023-01-02T16:41:03.321Z,0.97
2023-01-02T16:43:38.007Z,1.53
2023-01-02T16:46:14.553Z,1.27
2023-01-02T16:48:44.100Z,4.20
2023-01-02T16:51:16.275Z,2.40
2023-01-02T16:53:45.946Z,2.07
2023-01-02T16:56:15.123Z,2.90
2023-01-02T16:58:43.670Z,2.47
2023-01-02T17:01:14.469Z,2.03
2023-01-02T17:03:43.106Z,1.83
2023-01-02T17:06:15.893Z,2.03
2023-01-02T17:08:44.584Z,1.40
2023-01-02T17:11:15.971Z,1.37
2023-01-02T17:13:44.638Z,2.27
2023-01-02T17:16:12.899Z,0.73
2023-01-02T17:18:41.264Z,1.83
2023-01-02T17:21:09.585Z,1.63
2023-01-02T17:23:39.503Z,1.70
2023-01-02T17:26:07.749Z,0.83
2023-01-02T17:28:36.849Z,2.03
2023-01-02T17:31:05.668Z,2.40
2023-01-02T17:33:33.985Z,0.67
2023-01-02T17:36:02.314Z,1.40
2023-01-02T17:38:30.555Z,1.27
2023-01-02T17:41:01.478Z,1.60
2023-01-02T17:43:29.744Z,1.30
2023-01-02T17:45:58.049Z,0.70
2023-01-02T17:48:26.390Z,0.73
2023-01-02T17:50:55.334Z,1.10
2023-01-02T17:53:23.614Z,1.30
2023-01-02T17:56:20.987Z,1.30
2023-01-02T17:58:43.823Z,1.57
2023-01-02T18:01:17.324Z,0.57
2023-01-02T18:03:45.963Z,2.20
2023-01-02T18:06:14.832Z,0.90
2023-01-02T18:08:43.376Z,1.83
2023-01-02T18:11:14.766Z,1.60
2023-01-02T18:13:48.590Z,0.63
2023-01-02T18:16:20.072Z,0.60
2023-01-02T18:18:49.061Z,1.73
2023-01-02T18:21:20.503Z,1.00
2023-01-02T18:23:51.098Z,1.47
2023-01-02T18:26:20.348Z,1.13
2023-01-02T18:28:52.260Z,1.53
2023-01-02T18:31:22.495Z,1.07
2023-01-02T18:33:52.735Z,1.13
2023-01-02T18:36:22.996Z,0.63
2023-01-02T18:38:55.339Z,2.47
2023-01-02T18:41:25.468Z,2.20
2023-01-02T18:44:01.549Z,1.67
2023-01-02T18:47:02.411Z,0.83
2023-01-02T18:49:25.198Z,1.20
2023-01-02T18:52:01.812Z,1.83
2023-01-02T18:54:31.871Z,0.60
2023-01-02T18:57:01.751Z,2.20
2023-01-02T18:59:33.456Z,1.23
2023-01-02T19:02:03.381Z,1.60
2023-01-02T19:04:36.144Z,3.10
2023-01-02T19:07:19.040Z,0.53
2023-01-02T19:09:47.304Z,2.53
2023-01-02T19:12:43.369Z,1.20
2023-01-02T19:15:40.669Z,0.50
2023-01-02T19:18:28.123Z,1.13
2023-01-02T19:21:00.281Z,0.70
2023-01-02T19:23:31.590Z,2.17
2023-01-02T19:26:09.202Z,1.47
2023-01-02T19:28:38.256Z,2.10
2023-01-02T19:31:15.340Z,1.63
2023-01-02T19:33:48.069Z,2.43
2023-01-02T19:36:19.353Z,2.33
2023-01-02T19:38:53.735Z,2.10
2023-01-02T19:41:42.809Z,1.83
2023-01-02T19:44:11.139Z,2.10
2023-01-02T19:46:40.789Z,3.37
2023-01-02T19:49:09.031Z,4.23
2023-01-02T19:51:37.243Z,3.03
2023-01-02T19:54:06.003Z,1.73
2023-01-02T19:56:34.353Z,1.67
2023-01-02T19:59:09.425Z,0.57
2023-01-02T20:01:42.459Z,1.27
2023-01-02T20:04:10.836Z,1.27
2023-01-02T20:06:39.100Z,1.17
2023-01-02T20:09:07.530Z,2.30
2023-01-02T20:11:53.052Z,1.30
2023-01-02T20:14:21.516Z,1.00
2023-01-02T20:16:51.246Z,1.13
2023-01-02T20:19:19.531Z,0.50
2023-01-02T20:21:47.839Z,0.90
2023-01-02T20:24:16.075Z,1.90
2023-01-02T20:26:44.356Z,1.43
2023-01-02T20:29:12.678Z,2.40
2023-01-02T20:31:40.926Z,2.00
2023-01-02T20:34:10.770Z,3.67
2023-01-02T20:36:39.238Z,1.00
2023-01-02T20:39:08.799Z,2.40
2023-01-02T20:41:40.135Z,2.50
2023-01-02T20:44:09.307Z,2.70
2023-01-02T20:46:38.204Z,1.77
2023-01-02T20:49:07.216Z,0.80
2023-01-02T20:51:37.594Z,0.40
2023-01-02T20:54:07.144Z,1.30
2023-01-02T20:56:36.255Z,1.50
2023-01-02T20:59:04.584Z,2.30
2023-01-02T21:01:33.198Z,2.00
2023-01-02T21:04:01.642Z,3.80
2023-01-02T21:06:29.922Z,1.37
2023-01-02T21:09:00.928Z,1.47
2023-01-02T21:11:29.395Z,2.00
2023-01-02T21:13:58.131Z,0.93
2023-01-02T21:16:26.875Z,1.57
2023-01-02T21:18:55.232Z,4.00
2023-01-02T21:21:23.503Z,1.60
2023-01-02T21:23:51.793Z,1.23
2023-01-02T21:26:23.733Z,1.60
2023-01-02T21:28:52.273Z,1.50
2023-01-02T21:31:21.497Z,1.67
2023-01-02T21:33:50.491Z,2.10
2023-01-02T21:36:18.838Z,0.70
2023-01-02T21:38:47.136Z,1.07
2023-01-02T21:41:32.767Z,0.70
2023-01-02T21:44:02.464Z,0.47
2023-01-02T21:46:30.723Z,0.93
2023-01-02T21:48:59.135Z,1.27
2023-01-02T21:51:32.712Z,0.93
2023-01-02T21:54:01.796Z,1.00
2023-01-02T21:56:30.640Z,0.80
2023-01-02T21:58:59.041Z,0.70
2023-01-02T22:01:29.036Z,1.30
2023-01-02T22:03:57.527Z,2.00
2023-01-02T22:06:26.178Z,0.80
2023-01-02T22:08:54.378Z,0.40
2023-01-02T22:11:39.838Z,0.30
2023-01-02T22:14:08.048Z,0.97
2023-01-02T22:16:37.856Z,3.00
2023-01-02T22:19:06.169Z,0.80
2023-01-02T22:21:34.447Z,1.63
2023-01-02T22:24:02.745Z,1.10
2023-01-02T22:26:31.257Z,0.57
2023-01-02T22:29:00.169Z,2.13
2023-01-02T22:31:29.311Z,1.50
2023-01-02T22:33:59.328Z,1.80
2023-01-02T22:36:31.447Z,0.67
2023-01-02T22:39:27.181Z,0.40
2023-01-02T22:41:51.371Z,0.70
2023-01-02T22:44:26.740Z,1.37
2023-01-02T22:46:56.511Z,1.23
2023-01-02T22:49:30.423Z,2.67
2023-01-02T22:52:07.083Z,1.90
2023-01-02T22:54:35.701Z,1.00
2023-01-02T22:57:04.033Z,0.90
2023-01-02T22:59:32.360Z,0.80
2023-01-02T23:02:00.716Z,0.77
2023-01-02T23:04:30.524Z,1.70
2023-01-02T23:07:23.498Z,0.73
2023-01-02T23:09:47.321Z,1.17
2023-01-02T23:12:15.809Z,0.60
2023-01-02T23:14:44.350Z,1.20
2023-01-02T23:17:30.452Z,0.90
2023-01-02T23:20:00.176Z,1.00
2023-01-02T23:22:28.423Z,1.03
2023-01-02T23:24:56.682Z,1.10
2023-01-02T23:27:25.008Z,1.27
2023-01-02T23:29:53.358Z,0.63
2023-01-02T23:32:21.611Z,1.60
2023-01-02T23:34:49.931Z,0.70
2023-01-02T23:37:19.603Z,0.93
2023-01-02T23:39:47.900Z,1.80
2023-01-02T23:42:16.182Z,0.73
2023-01-02T23:44:44.488Z,0.90
2023-01-02T23:47:18.736Z,0.90
2023-01-02T23:49:47.493Z,0.50
2023-01-02T23:52:15.722Z,0.60
2023-01-02T23:54:45.526Z,0.97
2023-01-02T23:57:13.863Z,0.60
2023-01-02T23:59:42.108Z,0.97
